Terminal Aerodrome Forecast
Issued by NWS

Home | Current Version | Previous Version | Graphics & Text | Print | Product List | Glossary On
Versions: 1 2 3 4 5 6 7 8 9 10 11 12 13 14 15 16 17 18 19 20 21
000
FTUS43 KICT 251720
TAFSLN
TAF
KSLN 251720Z 2518/2618 35016G22KT P6SM OVC015
     FM252300 04014KT P6SM OVC015
     FM260700 07014KT P6SM OVC007
     FM261500 08015KT P6SM OVC015=

USA.gov is the U.S. government's official web portal to all federal, state and local government web resources and services.